createdAt,value
2022-08-12T00:00:34.109Z,23.10
2022-08-12T00:03:21.151Z,23.00
2022-08-12T00:06:09.578Z,23.00
2022-08-12T00:08:57.094Z,22.90
2022-08-12T00:11:44.884Z,22.90
2022-08-12T00:14:31.045Z,22.80
2022-08-12T00:17:17.174Z,22.80
2022-08-12T00:20:03.371Z,22.70
2022-08-12T00:22:58.858Z,22.60
2022-08-12T00:26:21.829Z,22.60
2022-08-12T00:29:02.443Z,22.50
2022-08-12T00:31:48.137Z,22.40
2022-08-12T00:34:35.252Z,22.30
2022-08-12T00:37:21.995Z,22.20
2022-08-12T00:40:11.411Z,22.10
2022-08-12T00:42:41.209Z,22.10
2022-08-12T00:45:11.040Z,22.20
2022-08-12T00:47:40.785Z,22.10
2022-08-12T00:50:17.798Z,22.10
2022-08-12T00:52:46.718Z,22.00
2022-08-12T00:55:17.423Z,22.00
2022-08-12T00:57:52.117Z,22.00
2022-08-12T01:00:22.405Z,22.00
2022-08-12T01:02:53.467Z,21.90
2022-08-12T01:05:46.402Z,21.90
2022-08-12T01:08:31.347Z,21.90
2022-08-12T01:11:18.736Z,21.90
2022-08-12T01:13:49.893Z,21.80
2022-08-12T01:16:22.858Z,21.80
2022-08-12T01:18:52.916Z,21.70
2022-08-12T01:21:35.733Z,21.80
2022-08-12T01:24:29.745Z,21.80
2022-08-12T01:27:02.569Z,21.80
2022-08-12T01:29:34.677Z,21.80
2022-08-12T01:32:11.545Z,21.80
2022-08-12T01:34:42.614Z,21.80
2022-08-12T01:37:11.455Z,21.80
2022-08-12T01:40:36.099Z,21.80
2022-08-12T01:42:44.537Z,21.80
2022-08-12T01:45:13.886Z,21.70
2022-08-12T01:48:05.297Z,21.60
2022-08-12T01:50:43.114Z,21.50
2022-08-12T01:53:13.281Z,21.40
2022-08-12T01:55:44.024Z,21.30
2022-08-12T01:58:26.759Z,21.30
2022-08-12T02:00:59.517Z,21.20
2022-08-12T02:04:05.281Z,21.20
2022-08-12T02:06:57.788Z,21.10
2022-08-12T02:09:58.241Z,21.10
2022-08-12T02:12:43.925Z,21.30
2022-08-12T02:15:26.021Z,21.20
2022-08-12T02:18:13.610Z,21.10
2022-08-12T02:20:52.193Z,21.10
2022-08-12T02:23:28.306Z,21.00
2022-08-12T02:26:01.135Z,21.10
2022-08-12T02:28:30.568Z,21.10
2022-08-12T02:31:06.259Z,21.00
2022-08-12T02:33:35.549Z,21.00
2022-08-12T02:36:04.195Z,21.00
2022-08-12T02:38:32.612Z,20.90
2022-08-12T02:41:04.493Z,20.90
2022-08-12T02:43:37.895Z,20.90
2022-08-12T02:46:14.002Z,20.80
2022-08-12T02:48:49.039Z,20.70
2022-08-12T02:51:20.788Z,20.60
2022-08-12T02:54:03.017Z,20.60
2022-08-12T02:56:37.973Z,20.70
2022-08-12T02:59:12.019Z,20.70
2022-08-12T03:01:49.957Z,20.70
2022-08-12T03:04:26.861Z,20.70
2022-08-12T03:07:04.811Z,20.60
2022-08-12T03:10:03.854Z,20.60
2022-08-12T03:12:26.795Z,20.50
2022-08-12T03:15:07.237Z,20.50
2022-08-12T03:17:46.220Z,20.50
2022-08-12T03:20:38.275Z,20.50
2022-08-12T03:23:10.213Z,20.50
2022-08-12T03:25:51.781Z,20.50
2022-08-12T03:28:40.871Z,20.40
2022-08-12T03:31:11.346Z,20.20
2022-08-12T03:34:00.448Z,20.20
2022-08-12T03:36:35.397Z,20.20
2022-08-12T03:39:36.376Z,20.20
2022-08-12T03:42:22.604Z,20.10
2022-08-12T03:45:16.322Z,20.10
2022-08-12T03:48:10.445Z,20.00
2022-08-12T03:51:00.921Z,20.00
2022-08-12T03:53:49.458Z,20.00
2022-08-12T03:56:35.908Z,20.00
2022-08-12T03:59:23.366Z,20.00
2022-08-12T04:01:57.945Z,19.90
2022-08-12T04:04:28.715Z,19.80
2022-08-12T04:06:59.256Z,19.70
2022-08-12T04:09:28.121Z,19.70
2022-08-12T04:12:13.487Z,19.70
2022-08-12T04:14:43.235Z,19.70
2022-08-12T04:17:12.119Z,19.70
2022-08-12T04:19:41.280Z,19.70
2022-08-12T04:22:12.572Z,19.70
2022-08-12T04:24:43.159Z,19.70
2022-08-12T04:27:17.000Z,19.60
2022-08-12T04:30:16.339Z,19.60
2022-08-12T04:32:35.051Z,19.50
2022-08-12T04:35:04.053Z,19.50
2022-08-12T04:37:57.507Z,19.60
2022-08-12T04:40:28.229Z,19.50
2022-08-12T04:42:57.051Z,19.50
2022-08-12T04:45:25.569Z,19.50
2022-08-12T04:47:54.454Z,19.50
2022-08-12T04:50:33.785Z,19.50
2022-08-12T04:53:08.534Z,19.50
2022-08-12T04:55:38.981Z,19.60
2022-08-12T04:58:07.624Z,19.60
2022-08-12T05:00:37.640Z,19.70
2022-08-12T05:03:06.445Z,19.60
2022-08-12T05:05:36.946Z,19.70
2022-08-12T05:08:12.756Z,19.70
2022-08-12T05:10:41.221Z,19.70
2022-08-12T05:13:12.226Z,19.70
2022-08-12T05:16:02.673Z,19.80
2022-08-12T05:18:31.251Z,19.90
2022-08-12T05:21:00.561Z,19.80
2022-08-12T05:23:32.339Z,19.80
2022-08-12T05:26:01.291Z,19.80
2022-08-12T05:28:30.737Z,19.90
2022-08-12T05:31:01.933Z,19.90
2022-08-12T05:33:38.723Z,20.00
2022-08-12T05:36:08.708Z,20.10
2022-08-12T05:38:56.509Z,20.40
2022-08-12T05:41:25.457Z,20.70
2022-08-12T05:43:56.479Z,21.20
2022-08-12T05:46:26.292Z,21.50
2022-08-12T05:48:55.549Z,21.90
2022-08-12T05:51:25.490Z,22.10
2022-08-12T05:54:09.857Z,22.10
2022-08-12T05:56:38.312Z,22.20
2022-08-12T05:59:07.793Z,22.20
2022-08-12T06:02:12.593Z,22.40
2022-08-12T06:04:25.709Z,22.60
2022-08-12T06:06:53.986Z,22.80
2022-08-12T06:09:25.651Z,23.10
2022-08-12T06:12:06.213Z,23.30
2022-08-12T06:14:37.773Z,23.60
2022-08-12T06:17:09.187Z,23.90
2022-08-12T06:20:25.844Z,24.20
2022-08-12T06:22:26.894Z,24.60
2022-08-12T06:24:56.553Z,25.10
2022-08-12T06:27:24.813Z,25.50
2022-08-12T06:30:08.847Z,25.80
2022-08-12T06:32:51.992Z,26.00
2022-08-12T06:35:47.821Z,26.10
2022-08-12T06:38:19.741Z,26.40
2022-08-12T06:41:12.846Z,26.50
2022-08-12T06:44:06.722Z,26.80
2022-08-12T06:46:31.273Z,26.90
2022-08-12T06:49:00.323Z,26.80
2022-08-12T06:51:30.421Z,27.00
2022-08-12T06:53:59.147Z,27.20
2022-08-12T06:56:59.564Z,27.50
2022-08-12T06:59:21.346Z,27.50
2022-08-12T07:01:51.705Z,27.90
2022-08-12T07:04:38.224Z,28.00
2022-08-12T07:07:08.728Z,27.80
2022-08-12T07:10:04.048Z,27.80
2022-08-12T07:12:27.914Z,28.00
2022-08-12T07:14:57.243Z,28.40
2022-08-12T07:17:25.484Z,28.60
2022-08-12T07:19:57.990Z,28.60
2022-08-12T07:22:29.048Z,28.70
2022-08-12T07:25:11.316Z,28.90
2022-08-12T07:27:42.682Z,29.20
2022-08-12T07:30:12.321Z,29.40
2022-08-12T07:32:40.514Z,29.60
2022-08-12T07:35:09.553Z,29.90
2022-08-12T07:37:42.165Z,30.10
2022-08-12T07:40:12.267Z,30.30
2022-08-12T07:42:43.806Z,30.50
2022-08-12T07:45:13.439Z,30.90
2022-08-12T07:47:43.440Z,31.00
2022-08-12T07:50:13.248Z,31.30
2022-08-12T07:52:43.915Z,31.60
2022-08-12T07:55:13.806Z,31.80
2022-08-12T07:57:58.024Z,31.60
2022-08-12T08:00:28.097Z,31.30
2022-08-12T08:02:56.593Z,31.40
2022-08-12T08:05:26.824Z,31.70
2022-08-12T08:07:55.680Z,31.90
2022-08-12T08:10:24.102Z,32.00
2022-08-12T08:12:58.396Z,32.10
2022-08-12T08:15:51.295Z,32.00
2022-08-12T08:18:25.756Z,32.10
2022-08-12T08:20:54.683Z,32.20
2022-08-12T08:23:29.257Z,32.10
2022-08-12T08:26:03.587Z,32.20
2022-08-12T08:28:36.613Z,32.40
2022-08-12T08:31:04.638Z,32.40
2022-08-12T08:34:05.039Z,32.60
2022-08-12T08:36:24.144Z,32.50
2022-08-12T08:38:55.032Z,32.40
2022-08-12T08:42:14.107Z,32.60
2022-08-12T08:44:38.344Z,32.60
2022-08-12T08:47:08.227Z,32.70
2022-08-12T08:49:37.605Z,32.50
2022-08-12T08:52:07.150Z,32.00
2022-08-12T08:54:37.972Z,32.10
2022-08-12T08:57:08.236Z,32.20
2022-08-12T08:59:37.909Z,32.00
2022-08-12T09:02:07.565Z,32.00
2022-08-12T09:05:12.476Z,31.90
2022-08-12T09:07:51.559Z,32.10
2022-08-12T09:10:30.570Z,32.30
2022-08-12T09:13:23.369Z,32.50
2022-08-12T09:15:59.565Z,32.90
2022-08-12T09:21:16.891Z,33.20
2022-08-12T09:26:46.060Z,33.30
2022-08-12T09:29:15.578Z,33.50
2022-08-12T09:32:07.945Z,33.60
2022-08-12T09:34:42.212Z,33.40
2022-08-12T09:37:18.758Z,33.30
2022-08-12T09:40:05.030Z,33.20
2022-08-12T09:43:17.358Z,33.00
2022-08-12T09:46:11.025Z,33.10
2022-08-12T09:48:39.229Z,33.00
2022-08-12T09:51:17.198Z,33.30
2022-08-12T09:54:06.018Z,33.30
2022-08-12T09:56:59.309Z,33.20
2022-08-12T10:00:17.196Z,33.30
2022-08-12T10:02:43.053Z,33.30
2022-08-12T10:05:13.706Z,33.40
2022-08-12T10:07:45.868Z,33.50
2022-08-12T10:10:24.389Z,33.60
2022-08-12T10:13:14.465Z,33.50
2022-08-12T10:16:02.459Z,33.20
2022-08-12T10:18:35.444Z,33.30
2022-08-12T10:21:09.515Z,33.40
2022-08-12T10:23:40.413Z,33.50
2022-08-12T10:26:37.889Z,33.80
2022-08-12T10:30:37.150Z,33.90
2022-08-12T10:32:20.749Z,34.20
2022-08-12T10:34:53.442Z,34.10
2022-08-12T10:38:37.479Z,34.10
2022-08-12T10:40:19.674Z,34.00
2022-08-12T10:43:06.441Z,34.10
2022-08-12T10:45:38.320Z,34.00
2022-08-12T10:48:21.711Z,34.20
2022-08-12T10:51:01.890Z,34.20
2022-08-12T10:53:43.937Z,34.20
2022-08-12T10:56:13.446Z,34.10
2022-08-12T10:58:46.128Z,34.00
2022-08-12T11:01:25.751Z,34.20
2022-08-12T11:04:35.443Z,34.20
2022-08-12T11:07:07.640Z,34.40
2022-08-12T11:10:00.936Z,34.40
2022-08-12T11:12:55.503Z,34.30
2022-08-12T11:15:33.147Z,34.50
2022-08-12T11:18:12.279Z,34.70
2022-08-12T11:20:48.539Z,34.50
2022-08-12T11:23:25.898Z,34.70
2022-08-12T11:26:08.150Z,34.80
2022-08-12T11:28:38.770Z,34.50
2022-08-12T11:31:12.387Z,34.40
2022-08-12T11:34:05.010Z,34.50
2022-08-12T11:36:32.099Z,34.90
2022-08-12T11:39:04.241Z,34.70
2022-08-12T11:41:34.750Z,34.70
2022-08-12T11:44:35.063Z,34.60
2022-08-12T11:46:54.103Z,34.80
2022-08-12T11:49:31.136Z,34.90
2022-08-12T11:52:03.081Z,34.50
2022-08-12T11:54:32.051Z,34.40
2022-08-12T11:58:19.782Z,34.40
2022-08-12T12:02:40.440Z,34.40
2022-08-12T12:05:09.529Z,34.50
2022-08-12T12:08:37.500Z,34.50
2022-08-12T12:10:29.167Z,34.60
2022-08-12T12:12:58.700Z,34.90
2022-08-12T12:15:41.263Z,35.30
2022-08-12T12:18:22.392Z,35.10
2022-08-12T12:20:51.206Z,35.20
2022-08-12T12:23:29.313Z,35.30
2022-08-12T12:25:59.326Z,34.80
2022-08-12T12:28:39.700Z,34.80
2022-08-12T12:31:14.951Z,34.80
2022-08-12T12:33:58.274Z,34.60
2022-08-12T12:36:30.056Z,34.50
2022-08-12T12:38:59.956Z,34.70
2022-08-12T12:42:41.706Z,34.70
2022-08-12T12:44:30.367Z,34.60
2022-08-12T12:47:28.788Z,34.60
2022-08-12T12:49:56.633Z,34.50
2022-08-12T12:52:27.005Z,34.20
2022-08-12T12:54:58.760Z,34.00
2022-08-12T12:57:59.354Z,33.80
2022-08-12T13:00:19.026Z,33.70
2022-08-12T13:02:55.701Z,33.90
2022-08-12T13:05:27.736Z,34.20
2022-08-12T13:08:00.771Z,34.20
2022-08-12T13:10:36.848Z,34.10
2022-08-12T13:14:09.481Z,34.10
2022-08-12T13:15:59.383Z,34.00
2022-08-12T13:18:28.894Z,34.00
2022-08-12T13:20:59.511Z,34.20
2022-08-12T13:23:36.825Z,34.30
2022-08-12T13:26:14.518Z,34.30
2022-08-12T13:28:53.408Z,34.40
2022-08-12T13:31:27.269Z,34.40
2022-08-12T13:34:32.740Z,34.80
2022-08-12T13:36:45.498Z,34.80
2022-08-12T13:39:16.348Z,34.50
2022-08-12T13:41:44.843Z,34.50
2022-08-12T13:44:13.390Z,34.30
2022-08-12T13:46:43.229Z,34.30
2022-08-12T13:49:17.613Z,34.10
2022-08-12T13:52:03.925Z,34.10
2022-08-12T13:54:32.999Z,34.10
2022-08-12T13:57:01.570Z,34.30
2022-08-12T13:59:30.911Z,34.60
2022-08-12T14:02:18.722Z,34.70
2022-08-12T14:04:56.549Z,34.60
2022-08-12T14:07:26.162Z,34.60
2022-08-12T14:10:16.286Z,34.60
2022-08-12T14:12:54.872Z,34.50
2022-08-12T14:15:26.682Z,34.30
2022-08-12T14:18:14.845Z,34.10
2022-08-12T14:20:47.563Z,34.40
2022-08-12T14:24:08.121Z,34.50
2022-08-12T14:26:11.775Z,34.50
2022-08-12T14:28:45.458Z,34.10
2022-08-12T14:31:32.042Z,34.00
2022-08-12T14:34:04.977Z,34.00
2022-08-12T14:36:34.188Z,34.10
2022-08-12T14:39:06.615Z,34.00
2022-08-12T14:41:37.164Z,33.70
2022-08-12T14:44:59.690Z,33.70
2022-08-12T14:47:07.758Z,33.90
2022-08-12T14:50:37.063Z,33.80
2022-08-12T14:53:15.316Z,34.00
2022-08-12T14:58:04.525Z,34.60
2022-08-12T15:00:53.448Z,34.60
2022-08-12T15:03:52.455Z,34.50
2022-08-12T15:06:43.083Z,34.40
2022-08-12T15:09:12.110Z,34.20
2022-08-12T15:11:55.776Z,34.00
2022-08-12T15:14:30.729Z,33.80
2022-08-12T15:17:00.180Z,34.00
2022-08-12T15:20:30.958Z,34.00
2022-08-12T15:22:38.217Z,33.70
2022-08-12T15:25:08.977Z,33.70
2022-08-12T15:28:03.851Z,33.60
2022-08-12T15:30:33.760Z,33.40
2022-08-12T15:33:12.192Z,33.60
2022-08-12T15:35:50.329Z,33.50
2022-08-12T15:38:27.220Z,33.50
2022-08-12T15:40:59.155Z,33.50
2022-08-12T15:43:51.672Z,33.40
2022-08-12T15:46:18.410Z,33.40
2022-08-12T15:48:49.603Z,33.30
2022-08-12T15:51:58.889Z,33.30
2022-08-12T15:54:34.343Z,33.20
2022-08-12T15:57:08.117Z,33.10
2022-08-12T16:00:04.578Z,33.10
2022-08-12T16:02:29.816Z,33.00
2022-08-12T16:04:59.084Z,33.10
2022-08-12T16:07:31.213Z,33.00
2022-08-12T16:10:06.833Z,32.90
2022-08-12T16:12:41.998Z,32.70
2022-08-12T16:15:13.433Z,32.50
2022-08-12T16:18:15.039Z,32.50
2022-08-12T16:20:33.517Z,32.50
2022-08-12T16:23:50.928Z,32.50
2022-08-12T16:26:05.264Z,32.60
2022-08-12T16:28:35.170Z,32.60
2022-08-12T16:31:05.752Z,32.70
2022-08-12T16:33:56.244Z,32.60
2022-08-12T16:36:27.765Z,32.70
2022-08-12T16:38:56.061Z,32.50
2022-08-12T16:41:28.162Z,32.30
2022-08-12T16:43:56.899Z,32.40
2022-08-12T16:46:32.649Z,32.30
2022-08-12T16:49:09.188Z,32.20
2022-08-12T16:51:46.827Z,32.20
2022-08-12T16:54:17.267Z,32.10
2022-08-12T16:56:50.711Z,32.00
2022-08-12T16:59:24.158Z,32.00
2022-08-12T17:01:52.635Z,32.00
2022-08-12T17:04:24.269Z,32.10
2022-08-12T17:06:53.669Z,32.10
2022-08-12T17:09:22.361Z,32.10
2022-08-12T17:11:52.911Z,31.90
2022-08-12T17:14:23.416Z,31.90
2022-08-12T17:16:55.636Z,31.70
2022-08-12T17:20:30.467Z,31.60
2022-08-12T17:22:16.453Z,31.50
2022-08-12T17:24:54.559Z,31.30
2022-08-12T17:27:26.683Z,31.30
2022-08-12T17:30:04.209Z,31.30
2022-08-12T17:32:36.025Z,31.30
2022-08-12T17:35:29.667Z,31.20
2022-08-12T17:38:00.359Z,31.10
2022-08-12T17:40:36.402Z,31.10
2022-08-12T17:43:54.617Z,31.10
2022-08-12T17:45:59.772Z,31.10
2022-08-12T17:48:34.719Z,31.00
2022-08-12T17:51:07.122Z,31.00
2022-08-12T17:54:05.932Z,31.00
2022-08-12T17:56:27.999Z,30.80
2022-08-12T17:59:02.249Z,30.70
2022-08-12T18:01:34.812Z,30.60
2022-08-12T18:04:20.926Z,30.50
2022-08-12T18:06:50.954Z,30.40
2022-08-12T18:09:21.527Z,30.20
2022-08-12T18:12:12.070Z,30.20
2022-08-12T18:14:47.504Z,30.20
2022-08-12T18:17:18.158Z,30.20
2022-08-12T18:20:06.007Z,30.10
2022-08-12T18:22:35.961Z,30.00
2022-08-12T18:25:06.755Z,29.90
2022-08-12T18:28:15.847Z,29.80
2022-08-12T18:30:52.888Z,29.60
2022-08-12T18:33:25.849Z,29.60
2022-08-12T18:35:56.916Z,29.50
2022-08-12T18:38:28.700Z,29.40
2022-08-12T18:41:20.946Z,29.40
2022-08-12T18:44:02.751Z,29.40
2022-08-12T18:46:47.374Z,29.10
2022-08-12T18:49:20.009Z,29.10
2022-08-12T18:52:02.258Z,29.00
2022-08-12T18:54:33.303Z,28.90
2022-08-12T18:57:15.479Z,28.80
2022-08-12T19:00:01.273Z,28.80
2022-08-12T19:02:40.744Z,28.70
2022-08-12T19:05:11.671Z,28.60
2022-08-12T19:07:48.961Z,28.50
2022-08-12T19:10:22.969Z,28.50
2022-08-12T19:13:09.205Z,28.40
2022-08-12T19:15:42.353Z,28.30
2022-08-12T19:18:13.278Z,28.20
2022-08-12T19:20:47.828Z,28.10
2022-08-12T19:23:20.917Z,28.10
2022-08-12T19:25:59.421Z,27.90
2022-08-12T19:28:34.985Z,27.90
2022-08-12T19:31:56.005Z,27.80
2022-08-12T19:37:27.147Z,27.70
2022-08-12T19:40:09.151Z,27.70
2022-08-12T19:42:57.810Z,27.60
2022-08-12T19:45:42.284Z,27.40
2022-08-12T19:48:18.204Z,27.40
2022-08-12T19:50:50.373Z,27.40
2022-08-12T19:53:22.833Z,27.40
2022-08-12T19:55:53.186Z,27.40
2022-08-12T19:58:22.598Z,27.30
2022-08-12T20:00:55.751Z,27.30
2022-08-12T20:03:40.461Z,27.10
2022-08-12T20:06:15.764Z,27.10
2022-08-12T20:08:56.779Z,27.00
2022-08-12T20:12:11.400Z,26.90
2022-08-12T20:14:17.830Z,26.90
2022-08-12T20:16:53.155Z,26.80
2022-08-12T20:19:53.090Z,26.70
2022-08-12T20:22:23.933Z,26.60
2022-08-12T20:25:01.132Z,26.50
2022-08-12T20:28:04.885Z,26.30
2022-08-12T20:30:37.939Z,26.30
2022-08-12T20:33:19.366Z,26.30
2022-08-12T20:36:12.934Z,26.20
2022-08-12T20:38:51.333Z,26.10
2022-08-12T20:41:20.841Z,26.10
2022-08-12T20:43:54.945Z,26.10
2022-08-12T20:46:28.045Z,26.00
2022-08-12T20:48:57.747Z,26.00
2022-08-12T20:51:28.048Z,25.90
2022-08-12T20:54:10.291Z,25.90
2022-08-12T20:56:39.632Z,25.80
2022-08-12T20:59:10.779Z,25.80
2022-08-12T21:01:46.356Z,25.80
2022-08-12T21:04:35.713Z,25.80
2022-08-12T21:07:09.619Z,25.70
2022-08-12T21:09:42.183Z,25.70
2022-08-12T21:12:28.262Z,25.60
2022-08-12T21:15:17.385Z,25.60
2022-08-12T21:18:01.278Z,25.60
2022-08-12T21:20:37.955Z,25.60
2022-08-12T21:23:07.822Z,25.70
2022-08-12T21:25:45.725Z,25.60
2022-08-12T21:28:14.860Z,25.50
2022-08-12T21:31:11.587Z,25.40
2022-08-12T21:33:58.698Z,25.30
2022-08-12T21:36:22.532Z,25.40
2022-08-12T21:38:58.312Z,25.30
2022-08-12T21:41:27.825Z,25.30
2022-08-12T21:44:01.883Z,25.20
2022-08-12T21:46:34.777Z,25.20
2022-08-12T21:49:05.622Z,25.20
2022-08-12T21:51:49.644Z,25.10
2022-08-12T21:54:21.987Z,25.00
2022-08-12T21:56:53.678Z,25.00
2022-08-12T21:59:23.027Z,25.00
2022-08-12T22:01:51.487Z,24.90
2022-08-12T22:04:37.973Z,25.00
2022-08-12T22:07:07.051Z,25.00
2022-08-12T22:09:42.589Z,25.00
2022-08-12T22:12:30.881Z,24.90
2022-08-12T22:14:59.335Z,24.90
2022-08-12T22:17:50.334Z,24.90
2022-08-12T22:20:23.837Z,24.90
2022-08-12T22:23:00.406Z,24.80
2022-08-12T22:25:31.229Z,24.80
2022-08-12T22:28:24.687Z,24.70
2022-08-12T22:31:11.122Z,24.50
2022-08-12T22:33:54.542Z,24.50
2022-08-12T22:36:29.506Z,24.60
2022-08-12T22:38:59.144Z,24.60
2022-08-12T22:41:45.806Z,24.50
2022-08-12T22:44:32.873Z,24.40
2022-08-12T22:47:53.536Z,24.30
2022-08-12T22:50:27.778Z,24.30
2022-08-12T22:53:14.637Z,24.20
2022-08-12T22:55:59.890Z,24.20
2022-08-12T22:58:35.259Z,24.10
2022-08-12T23:01:06.249Z,24.10
2022-08-12T23:03:48.751Z,24.10
2022-08-12T23:06:21.436Z,24.00
2022-08-12T23:08:49.933Z,24.00
2022-08-12T23:11:23.596Z,23.90
2022-08-12T23:13:57.229Z,23.90
2022-08-12T23:16:33.410Z,23.90
2022-08-12T23:19:09.854Z,24.00
2022-08-12T23:22:04.224Z,24.00
2022-08-12T23:24:29.197Z,23.90
2022-08-12T23:27:15.228Z,23.90
2022-08-12T23:30:17.782Z,23.90
2022-08-12T23:32:35.997Z,23.90
2022-08-12T23:35:06.705Z,23.90
2022-08-12T23:37:47.516Z,23.80
2022-08-12T23:40:24.692Z,23.70
2022-08-12T23:42:55.270Z,23.60
2022-08-12T23:45:31.423Z,23.60
2022-08-12T23:48:03.526Z,23.60
2022-08-12T23:50:34.106Z,23.50
2022-08-12T23:53:05.449Z,23.50
2022-08-12T23:55:38.186Z,23.50
2022-08-12T23:58:21.681Z,23.40
